Terminal Aerodrome Forecast
Issued by NWS Mt. Holly, NJ

Home | Current Version | Previous Version | Text Only | Print | Product List | Glossary On
Versions: 1 2 3 4 5 6 7 8 9 10 11 12 13 14 15 16 17 18
000
FTUS41 KPHI 231207 AAA
TAFRDG
TAF AMD
KRDG 231207Z 2312/2412 00000KT P6SM OVC008
     FM231400 VRB03KT P6SM SCT008 BKN012
     FM231700 14007KT P6SM BKN025
     FM232000 15008KT P6SM OVC045
     FM240200 15008KT P6SM OVC030 PROB30 2402/2406 5SM -SHRA
     FM240600 15008KT P6SM VCSH OVC025=

USA.gov is the U.S. government's official web portal to all federal, state and local government web resources and services.